Terminal Aerodrome Forecast
Issued by NWS Nashville, TN

Home | Current Version | Previous Version | Text Only | Print | Product List | Glossary On
Versions: 1 2 3 4 5 6 7 8 9 10 11 12 13 14 15 16 17
844
FTUS44 KOHX 251201 AAA
TAFBNA
TAF AMD
KBNA 251201Z 2512/2612 VRB03KT P6SM SCT250
      TEMPO 2512/2514 5SM BR
     FM251800 06006KT P6SM SCT050
     FM260100 07002KT P6SM FEW050
     FM260900 00000KT 4SM BR BKN015=

USA.gov is the U.S. government's official web portal to all federal, state and local government web resources and services.